sensor_id;sensor_type;location;lat;lon;timestamp;P1;durP1;ratioP1;P2;durP2;ratioP2
71204;SDS011;58935;54.498;18.544;2022-08-05T00:01:17;6.60;;;3.90;;
71204;SDS011;58935;54.498;18.544;2022-08-05T00:06:30;4.30;;;3.80;;
71204;SDS011;58935;54.498;18.544;2022-08-05T00:08:55;6.20;;;3.80;;
71204;SDS011;58935;54.498;18.544;2022-08-05T00:11:24;9.70;;;3.20;;
71204;SDS011;58935;54.498;18.544;2022-08-05T00:13:49;7.60;;;3.20;;
71204;SDS011;58935;54.498;18.544;2022-08-05T00:16:15;7.30;;;3.60;;
71204;SDS011;58935;54.498;18.544;2022-08-05T00:18:43;6.60;;;3.70;;
71204;SDS011;58935;54.498;18.544;2022-08-05T00:21:12;4.70;;;3.40;;
71204;SDS011;58935;54.498;18.544;2022-08-05T00:23:46;4.80;;;3.40;;
71204;SDS011;58935;54.498;18.544;2022-08-05T00:26:13;6.00;;;3.60;;
71204;SDS011;58935;54.498;18.544;2022-08-05T00:28:48;3.40;;;3.00;;
71204;SDS011;58935;54.498;18.544;2022-08-05T00:31:15;8.90;;;3.30;;
71204;SDS011;58935;54.498;18.544;2022-08-05T00:33:50;4.50;;;3.40;;
71204;SDS011;58935;54.498;18.544;2022-08-05T00:36:22;4.90;;;3.70;;
71204;SDS011;58935;54.498;18.544;2022-08-05T00:41:50;3.60;;;3.00;;
71204;SDS011;58935;54.498;18.544;2022-08-05T00:44:23;5.40;;;3.40;;
71204;SDS011;58935;54.498;18.544;2022-08-05T00:46:49;6.30;;;4.00;;
71204;SDS011;58935;54.498;18.544;2022-08-05T00:49:19;5.60;;;3.50;;
71204;SDS011;58935;54.498;18.544;2022-08-05T00:51:45;4.50;;;3.00;;
71204;SDS011;58935;54.498;18.544;2022-08-05T00:54:25;9.10;;;3.60;;
71204;SDS011;58935;54.498;18.544;2022-08-05T00:56:51;8.50;;;3.40;;
71204;SDS011;58935;54.498;18.544;2022-08-05T00:59:18;4.80;;;3.60;;
71204;SDS011;58935;54.498;18.544;2022-08-05T01:01:43;4.10;;;3.30;;
71204;SDS011;58935;54.498;18.544;2022-08-05T01:04:11;4.60;;;3.20;;
71204;SDS011;58935;54.498;18.544;2022-08-05T01:06:37;3.30;;;3.10;;
71204;SDS011;58935;54.498;18.544;2022-08-05T01:09:03;4.90;;;3.50;;
71204;SDS011;58935;54.498;18.544;2022-08-05T01:11:35;10.50;;;3.40;;
71204;SDS011;58935;54.498;18.544;2022-08-05T01:14:22;4.90;;;2.90;;
71204;SDS011;58935;54.498;18.544;2022-08-05T01:17:26;5.00;;;3.30;;
71204;SDS011;58935;54.498;18.544;2022-08-05T01:23:37;3.50;;;3.20;;
71204;SDS011;58935;54.498;18.544;2022-08-05T01:26:28;3.70;;;3.30;;
71204;SDS011;58935;54.498;18.544;2022-08-05T01:29:03;4.20;;;3.20;;
71204;SDS011;58935;54.498;18.544;2022-08-05T01:31:38;11.60;;;3.70;;
71204;SDS011;58935;54.498;18.544;2022-08-05T01:34:19;4.00;;;3.10;;
71204;SDS011;58935;54.498;18.544;2022-08-05T01:36:57;4.30;;;3.80;;
71204;SDS011;58935;54.498;18.544;2022-08-05T01:39:31;6.70;;;3.90;;
71204;SDS011;58935;54.498;18.544;2022-08-05T01:42:00;6.20;;;3.80;;
71204;SDS011;58935;54.498;18.544;2022-08-05T01:44:41;4.80;;;3.60;;
71204;SDS011;58935;54.498;18.544;2022-08-05T01:47:21;3.80;;;3.60;;
71204;SDS011;58935;54.498;18.544;2022-08-05T01:49:51;7.10;;;3.70;;
71204;SDS011;58935;54.498;18.544;2022-08-05T01:52:22;6.30;;;4.00;;
71204;SDS011;58935;54.498;18.544;2022-08-05T01:54:56;4.40;;;3.80;;
71204;SDS011;58935;54.498;18.544;2022-08-05T01:57:30;6.50;;;4.10;;
71204;SDS011;58935;54.498;18.544;2022-08-05T02:00:01;8.90;;;4.00;;
71204;SDS011;58935;54.498;18.544;2022-08-05T02:02:56;6.10;;;3.90;;
71204;SDS011;58935;54.498;18.544;2022-08-05T02:05:43;7.60;;;4.10;;
71204;SDS011;58935;54.498;18.544;2022-08-05T02:08:10;5.30;;;4.20;;
71204;SDS011;58935;54.498;18.544;2022-08-05T02:10:42;4.90;;;4.20;;
71204;SDS011;58935;54.498;18.544;2022-08-05T02:16:06;6.90;;;3.80;;
71204;SDS011;58935;54.498;18.544;2022-08-05T02:18:47;5.70;;;3.80;;
71204;SDS011;58935;54.498;18.544;2022-08-05T02:21:38;4.20;;;3.70;;
71204;SDS011;58935;54.498;18.544;2022-08-05T02:24:26;4.00;;;3.70;;
71204;SDS011;58935;54.498;18.544;2022-08-05T02:27:02;8.30;;;4.00;;
71204;SDS011;58935;54.498;18.544;2022-08-05T02:29:33;5.70;;;4.00;;
71204;SDS011;58935;54.498;18.544;2022-08-05T02:32:20;4.20;;;3.40;;
71204;SDS011;58935;54.498;18.544;2022-08-05T02:34:48;4.00;;;3.70;;
71204;SDS011;58935;54.498;18.544;2022-08-05T02:37:15;4.30;;;4.00;;
71204;SDS011;58935;54.498;18.544;2022-08-05T02:39:42;6.30;;;3.90;;
71204;SDS011;58935;54.498;18.544;2022-08-05T02:42:13;7.90;;;4.00;;
71204;SDS011;58935;54.498;18.544;2022-08-05T02:44:43;5.60;;;3.90;;
71204;SDS011;58935;54.498;18.544;2022-08-05T02:47:29;4.40;;;3.70;;
71204;SDS011;58935;54.498;18.544;2022-08-05T02:50:13;5.90;;;3.80;;
71204;SDS011;58935;54.498;18.544;2022-08-05T02:52:40;10.00;;;3.60;;
71204;SDS011;58935;54.498;18.544;2022-08-05T02:55:30;4.10;;;3.70;;
71204;SDS011;58935;54.498;18.544;2022-08-05T02:57:57;7.60;;;4.40;;
71204;SDS011;58935;54.498;18.544;2022-08-05T03:00:24;6.00;;;4.40;;
71204;SDS011;58935;54.498;18.544;2022-08-05T03:02:51;8.90;;;4.20;;
71204;SDS011;58935;54.498;18.544;2022-08-05T03:05:18;7.40;;;4.20;;
71204;SDS011;58935;54.498;18.544;2022-08-05T03:07:51;4.20;;;3.70;;
71204;SDS011;58935;54.498;18.544;2022-08-05T03:10:19;7.30;;;3.90;;
71204;SDS011;58935;54.498;18.544;2022-08-05T03:12:48;4.70;;;3.70;;
71204;SDS011;58935;54.498;18.544;2022-08-05T03:15:22;9.60;;;5.10;;
71204;SDS011;58935;54.498;18.544;2022-08-05T03:17:52;4.40;;;4.00;;
71204;SDS011;58935;54.498;18.544;2022-08-05T03:20:19;5.30;;;4.00;;
71204;SDS011;58935;54.498;18.544;2022-08-05T03:23:01;6.10;;;3.80;;
71204;SDS011;58935;54.498;18.544;2022-08-05T03:25:28;7.50;;;4.20;;
71204;SDS011;58935;54.498;18.544;2022-08-05T03:30:28;7.30;;;3.60;;
71204;SDS011;58935;54.498;18.544;2022-08-05T03:32:57;4.00;;;3.70;;
71204;SDS011;58935;54.498;18.544;2022-08-05T03:35:25;9.40;;;3.70;;
71204;SDS011;58935;54.498;18.544;2022-08-05T03:37:55;4.20;;;3.90;;
71204;SDS011;58935;54.498;18.544;2022-08-05T03:40:22;8.70;;;4.40;;
71204;SDS011;58935;54.498;18.544;2022-08-05T03:42:51;7.10;;;4.00;;
71204;SDS011;58935;54.498;18.544;2022-08-05T03:45:33;3.70;;;3.30;;
71204;SDS011;58935;54.498;18.544;2022-08-05T03:47:58;4.10;;;3.70;;
71204;SDS011;58935;54.498;18.544;2022-08-05T03:50:31;6.50;;;3.60;;
71204;SDS011;58935;54.498;18.544;2022-08-05T03:53:08;6.80;;;3.60;;
71204;SDS011;58935;54.498;18.544;2022-08-05T03:55:52;5.80;;;3.50;;
71204;SDS011;58935;54.498;18.544;2022-08-05T03:58:26;6.50;;;3.80;;
71204;SDS011;58935;54.498;18.544;2022-08-05T04:01:04;9.40;;;3.80;;
71204;SDS011;58935;54.498;18.544;2022-08-05T04:03:34;4.30;;;3.90;;
71204;SDS011;58935;54.498;18.544;2022-08-05T04:06:03;5.30;;;3.80;;
71204;SDS011;58935;54.498;18.544;2022-08-05T04:08:33;5.00;;;4.00;;
71204;SDS011;58935;54.498;18.544;2022-08-05T04:11:00;7.50;;;3.70;;
71204;SDS011;58935;54.498;18.544;2022-08-05T04:13:27;7.20;;;4.10;;
71204;SDS011;58935;54.498;18.544;2022-08-05T04:15:57;7.50;;;4.00;;
71204;SDS011;58935;54.498;18.544;2022-08-05T04:18:23;6.10;;;4.10;;
71204;SDS011;58935;54.498;18.544;2022-08-05T04:20:53;6.10;;;3.70;;
71204;SDS011;58935;54.498;18.544;2022-08-05T04:23:38;4.00;;;3.70;;
71204;SDS011;58935;54.498;18.544;2022-08-05T04:26:04;7.20;;;4.10;;
71204;SDS011;58935;54.498;18.544;2022-08-05T04:28:30;4.50;;;4.10;;
71204;SDS011;58935;54.498;18.544;2022-08-05T04:30:56;4.00;;;3.60;;
71204;SDS011;58935;54.498;18.544;2022-08-05T04:33:21;3.90;;;3.60;;
71204;SDS011;58935;54.498;18.544;2022-08-05T04:35:47;4.60;;;3.60;;
71204;SDS011;58935;54.498;18.544;2022-08-05T04:40:58;4.60;;;4.20;;
71204;SDS011;58935;54.498;18.544;2022-08-05T04:43:23;10.10;;;4.30;;
71204;SDS011;58935;54.498;18.544;2022-08-05T04:45:48;6.50;;;4.70;;
71204;SDS011;58935;54.498;18.544;2022-08-05T04:48:14;6.10;;;4.80;;
71204;SDS011;58935;54.498;18.544;2022-08-05T04:50:56;8.30;;;5.20;;
71204;SDS011;58935;54.498;18.544;2022-08-05T04:53:22;7.70;;;4.90;;
71204;SDS011;58935;54.498;18.544;2022-08-05T04:55:48;10.00;;;5.20;;
71204;SDS011;58935;54.498;18.544;2022-08-05T04:58:15;9.20;;;5.10;;
71204;SDS011;58935;54.498;18.544;2022-08-05T05:00:45;7.30;;;4.70;;
71204;SDS011;58935;54.498;18.544;2022-08-05T05:03:14;9.60;;;4.90;;
71204;SDS011;58935;54.498;18.544;2022-08-05T05:05:39;6.40;;;4.60;;
71204;SDS011;58935;54.498;18.544;2022-08-05T05:08:06;7.10;;;5.60;;
71204;SDS011;58935;54.498;18.544;2022-08-05T05:10:37;7.50;;;4.50;;
71204;SDS011;58935;54.498;18.544;2022-08-05T05:13:12;9.60;;;5.00;;
71204;SDS011;58935;54.498;18.544;2022-08-05T05:15:41;5.90;;;4.70;;
71204;SDS011;58935;54.498;18.544;2022-08-05T05:18:13;6.10;;;5.20;;
71204;SDS011;58935;54.498;18.544;2022-08-05T05:20:41;7.50;;;4.70;;
71204;SDS011;58935;54.498;18.544;2022-08-05T05:23:08;11.20;;;5.20;;
71204;SDS011;58935;54.498;18.544;2022-08-05T05:25:34;13.70;;;4.90;;
71204;SDS011;58935;54.498;18.544;2022-08-05T05:28:02;11.00;;;5.10;;
71204;SDS011;58935;54.498;18.544;2022-08-05T05:30:28;9.80;;;5.10;;
71204;SDS011;58935;54.498;18.544;2022-08-05T05:32:54;8.80;;;4.90;;
71204;SDS011;58935;54.498;18.544;2022-08-05T05:35:23;9.70;;;4.90;;
71204;SDS011;58935;54.498;18.544;2022-08-05T05:37:53;11.30;;;5.30;;
71204;SDS011;58935;54.498;18.544;2022-08-05T05:40:23;8.10;;;5.00;;
71204;SDS011;58935;54.498;18.544;2022-08-05T05:42:51;8.10;;;4.60;;
71204;SDS011;58935;54.498;18.544;2022-08-05T05:45:18;5.30;;;4.70;;
71204;SDS011;58935;54.498;18.544;2022-08-05T05:47:48;8.70;;;4.60;;
71204;SDS011;58935;54.498;18.544;2022-08-05T05:50:34;18.70;;;5.50;;
71204;SDS011;58935;54.498;18.544;2022-08-05T05:53:00;10.20;;;4.70;;
71204;SDS011;58935;54.498;18.544;2022-08-05T05:55:26;11.30;;;5.10;;
71204;SDS011;58935;54.498;18.544;2022-08-05T05:58:07;5.80;;;4.80;;
71204;SDS011;58935;54.498;18.544;2022-08-05T06:00:32;12.40;;;4.80;;
71204;SDS011;58935;54.498;18.544;2022-08-05T06:03:07;6.00;;;4.90;;
71204;SDS011;58935;54.498;18.544;2022-08-05T06:05:35;19.30;;;5.20;;
71204;SDS011;58935;54.498;18.544;2022-08-05T06:08:05;17.50;;;5.20;;
71204;SDS011;58935;54.498;18.544;2022-08-05T06:10:37;12.10;;;5.50;;
71204;SDS011;58935;54.498;18.544;2022-08-05T06:13:02;7.30;;;5.00;;
71204;SDS011;58935;54.498;18.544;2022-08-05T06:15:29;6.90;;;4.70;;
71204;SDS011;58935;54.498;18.544;2022-08-05T06:17:54;7.60;;;4.40;;
71204;SDS011;58935;54.498;18.544;2022-08-05T06:20:20;8.20;;;5.00;;
71204;SDS011;58935;54.498;18.544;2022-08-05T06:22:45;6.10;;;4.20;;
71204;SDS011;58935;54.498;18.544;2022-08-05T06:25:11;8.70;;;4.60;;
71204;SDS011;58935;54.498;18.544;2022-08-05T06:27:52;12.40;;;4.80;;
71204;SDS011;58935;54.498;18.544;2022-08-05T06:30:17;9.00;;;4.40;;
71204;SDS011;58935;54.498;18.544;2022-08-05T06:32:46;13.80;;;4.40;;
71204;SDS011;58935;54.498;18.544;2022-08-05T06:35:11;14.80;;;4.30;;
71204;SDS011;58935;54.498;18.544;2022-08-05T06:37:37;10.70;;;4.30;;
71204;SDS011;58935;54.498;18.544;2022-08-05T06:40:06;8.00;;;4.00;;
71204;SDS011;58935;54.498;18.544;2022-08-05T06:42:36;9.20;;;4.00;;
71204;SDS011;58935;54.498;18.544;2022-08-05T06:45:17;9.00;;;4.20;;
71204;SDS011;58935;54.498;18.544;2022-08-05T06:47:54;6.50;;;4.30;;
71204;SDS011;58935;54.498;18.544;2022-08-05T06:50:19;8.30;;;4.60;;
71204;SDS011;58935;54.498;18.544;2022-08-05T06:52:45;10.80;;;4.40;;
71204;SDS011;58935;54.498;18.544;2022-08-05T06:55:18;23.70;;;4.80;;
71204;SDS011;58935;54.498;18.544;2022-08-05T06:57:44;11.00;;;4.60;;
71204;SDS011;58935;54.498;18.544;2022-08-05T07:00:13;6.40;;;4.70;;
71204;SDS011;58935;54.498;18.544;2022-08-05T07:02:42;13.20;;;4.40;;
71204;SDS011;58935;54.498;18.544;2022-08-05T07:05:09;14.80;;;4.50;;
71204;SDS011;58935;54.498;18.544;2022-08-05T07:07:36;17.50;;;3.90;;
71204;SDS011;58935;54.498;18.544;2022-08-05T07:10:14;11.20;;;4.10;;
71204;SDS011;58935;54.498;18.544;2022-08-05T07:12:56;15.50;;;4.20;;
71204;SDS011;58935;54.498;18.544;2022-08-05T07:15:27;10.50;;;4.40;;
71204;SDS011;58935;54.498;18.544;2022-08-05T07:18:02;9.20;;;4.00;;
71204;SDS011;58935;54.498;18.544;2022-08-05T07:20:27;14.20;;;4.80;;
71204;SDS011;58935;54.498;18.544;2022-08-05T07:22:52;9.60;;;4.10;;
71204;SDS011;58935;54.498;18.544;2022-08-05T07:25:29;12.40;;;3.90;;
71204;SDS011;58935;54.498;18.544;2022-08-05T07:27:54;10.90;;;4.10;;
71204;SDS011;58935;54.498;18.544;2022-08-05T07:30:24;8.90;;;3.90;;
71204;SDS011;58935;54.498;18.544;2022-08-05T07:32:54;10.60;;;4.30;;
71204;SDS011;58935;54.498;18.544;2022-08-05T07:35:19;7.90;;;3.70;;
71204;SDS011;58935;54.498;18.544;2022-08-05T07:37:44;7.20;;;3.80;;
71204;SDS011;58935;54.498;18.544;2022-08-05T07:42:42;7.90;;;3.70;;
71204;SDS011;58935;54.498;18.544;2022-08-05T07:45:08;10.70;;;3.60;;
71204;SDS011;58935;54.498;18.544;2022-08-05T07:47:34;6.50;;;4.10;;
71204;SDS011;58935;54.498;18.544;2022-08-05T07:50:05;10.10;;;3.40;;
71204;SDS011;58935;54.498;18.544;2022-08-05T07:52:37;11.00;;;3.40;;
71204;SDS011;58935;54.498;18.544;2022-08-05T07:55:05;12.60;;;3.50;;
71204;SDS011;58935;54.498;18.544;2022-08-05T07:57:31;11.30;;;3.80;;
71204;SDS011;58935;54.498;18.544;2022-08-05T08:00:15;3.70;;;3.40;;
71204;SDS011;58935;54.498;18.544;2022-08-05T08:02:40;8.90;;;3.60;;
71204;SDS011;58935;54.498;18.544;2022-08-05T08:05:22;14.90;;;3.60;;
71204;SDS011;58935;54.498;18.544;2022-08-05T08:07:48;10.80;;;2.90;;
71204;SDS011;58935;54.498;18.544;2022-08-05T08:10:13;7.50;;;3.70;;
71204;SDS011;58935;54.498;18.544;2022-08-05T08:12:39;9.70;;;3.10;;
71204;SDS011;58935;54.498;18.544;2022-08-05T08:15:06;14.40;;;3.00;;
71204;SDS011;58935;54.498;18.544;2022-08-05T08:17:36;15.20;;;3.30;;
71204;SDS011;58935;54.498;18.544;2022-08-05T08:20:02;6.80;;;2.80;;
71204;SDS011;58935;54.498;18.544;2022-08-05T08:22:37;9.00;;;3.20;;
71204;SDS011;58935;54.498;18.544;2022-08-05T08:27:38;5.60;;;2.60;;
71204;SDS011;58935;54.498;18.544;2022-08-05T08:30:12;7.70;;;3.00;;
71204;SDS011;58935;54.498;18.544;2022-08-05T08:32:38;10.50;;;3.00;;
71204;SDS011;58935;54.498;18.544;2022-08-05T08:35:05;7.70;;;2.70;;
71204;SDS011;58935;54.498;18.544;2022-08-05T08:37:32;8.10;;;2.50;;
71204;SDS011;58935;54.498;18.544;2022-08-05T08:39:58;9.70;;;2.90;;
71204;SDS011;58935;54.498;18.544;2022-08-05T08:42:29;10.00;;;2.80;;
71204;SDS011;58935;54.498;18.544;2022-08-05T08:44:56;8.90;;;2.60;;
71204;SDS011;58935;54.498;18.544;2022-08-05T08:47:25;7.70;;;2.30;;
71204;SDS011;58935;54.498;18.544;2022-08-05T08:49:54;10.20;;;2.80;;
71204;SDS011;58935;54.498;18.544;2022-08-05T08:54:54;4.20;;;2.30;;
71204;SDS011;58935;54.498;18.544;2022-08-05T08:57:20;4.10;;;2.10;;
71204;SDS011;58935;54.498;18.544;2022-08-05T08:59:48;3.70;;;2.10;;
71204;SDS011;58935;54.498;18.544;2022-08-05T09:02:15;7.40;;;2.00;;
71204;SDS011;58935;54.498;18.544;2022-08-05T09:04:44;5.90;;;2.00;;
71204;SDS011;58935;54.498;18.544;2022-08-05T09:07:19;4.20;;;2.10;;
71204;SDS011;58935;54.498;18.544;2022-08-05T09:09:53;5.80;;;2.40;;
71204;SDS011;58935;54.498;18.544;2022-08-05T09:12:19;4.90;;;2.50;;
71204;SDS011;58935;54.498;18.544;2022-08-05T09:14:44;6.30;;;2.30;;
71204;SDS011;58935;54.498;18.544;2022-08-05T09:17:10;8.00;;;2.20;;
71204;SDS011;58935;54.498;18.544;2022-08-05T09:19:36;4.90;;;2.40;;
71204;SDS011;58935;54.498;18.544;2022-08-05T09:22:03;4.30;;;2.40;;
71204;SDS011;58935;54.498;18.544;2022-08-05T09:24:29;4.00;;;2.20;;
71204;SDS011;58935;54.498;18.544;2022-08-05T09:26:56;3.40;;;2.00;;
71204;SDS011;58935;54.498;18.544;2022-08-05T09:29:46;4.60;;;1.80;;
71204;SDS011;58935;54.498;18.544;2022-08-05T09:32:18;2.00;;;1.70;;
71204;SDS011;58935;54.498;18.544;2022-08-05T09:35:03;7.90;;;2.10;;
71204;SDS011;58935;54.498;18.544;2022-08-05T09:37:47;3.70;;;2.50;;
71204;SDS011;58935;54.498;18.544;2022-08-05T09:40:38;7.40;;;2.60;;
71204;SDS011;58935;54.498;18.544;2022-08-05T09:43:26;8.10;;;2.00;;
71204;SDS011;58935;54.498;18.544;2022-08-05T09:45:53;9.30;;;2.10;;
71204;SDS011;58935;54.498;18.544;2022-08-05T09:48:22;9.00;;;2.40;;
71204;SDS011;58935;54.498;18.544;2022-08-05T09:50:52;7.00;;;2.20;;
71204;SDS011;58935;54.498;18.544;2022-08-05T09:53:20;4.00;;;1.80;;
71204;SDS011;58935;54.498;18.544;2022-08-05T09:55:50;8.20;;;2.50;;
71204;SDS011;58935;54.498;18.544;2022-08-05T09:58:26;2.80;;;2.00;;
71204;SDS011;58935;54.498;18.544;2022-08-05T10:00:56;7.10;;;2.10;;
71204;SDS011;58935;54.498;18.544;2022-08-05T10:03:24;1.80;;;1.70;;
71204;SDS011;58935;54.498;18.544;2022-08-05T10:06:06;2.40;;;2.00;;
71204;SDS011;58935;54.498;18.544;2022-08-05T10:08:35;7.30;;;2.40;;
71204;SDS011;58935;54.498;18.544;2022-08-05T10:11:31;7.90;;;2.00;;
71204;SDS011;58935;54.498;18.544;2022-08-05T10:13:56;6.10;;;2.30;;
71204;SDS011;58935;54.498;18.544;2022-08-05T10:16:31;3.90;;;2.10;;
71204;SDS011;58935;54.498;18.544;2022-08-05T10:19:00;2.90;;;1.60;;
71204;SDS011;58935;54.498;18.544;2022-08-05T10:21:35;5.60;;;1.80;;
71204;SDS011;58935;54.498;18.544;2022-08-05T10:24:01;10.20;;;1.90;;
71204;SDS011;58935;54.498;18.544;2022-08-05T10:26:27;5.60;;;1.90;;
71204;SDS011;58935;54.498;18.544;2022-08-05T10:28:52;5.20;;;1.90;;
71204;SDS011;58935;54.498;18.544;2022-08-05T10:31:18;6.20;;;2.20;;
71204;SDS011;58935;54.498;18.544;2022-08-05T10:33:47;8.20;;;1.90;;
71204;SDS011;58935;54.498;18.544;2022-08-05T10:36:14;2.60;;;2.00;;
71204;SDS011;58935;54.498;18.544;2022-08-05T10:38:49;4.60;;;1.80;;
71204;SDS011;58935;54.498;18.544;2022-08-05T10:41:27;3.40;;;2.10;;
71204;SDS011;58935;54.498;18.544;2022-08-05T10:46:53;2.90;;;2.00;;
71204;SDS011;58935;54.498;18.544;2022-08-05T10:49:23;1.70;;;1.60;;
71204;SDS011;58935;54.498;18.544;2022-08-05T10:52:14;6.90;;;2.00;;
71204;SDS011;58935;54.498;18.544;2022-08-05T10:55:05;4.40;;;1.80;;
71204;SDS011;58935;54.498;18.544;2022-08-05T10:57:34;6.30;;;2.00;;
71204;SDS011;58935;54.498;18.544;2022-08-05T11:00:19;6.90;;;2.00;;
71204;SDS011;58935;54.498;18.544;2022-08-05T11:03:09;7.20;;;2.40;;
71204;SDS011;58935;54.498;18.544;2022-08-05T11:05:36;7.20;;;2.10;;
71204;SDS011;58935;54.498;18.544;2022-08-05T11:08:05;4.20;;;2.00;;
71204;SDS011;58935;54.498;18.544;2022-08-05T11:10:33;4.60;;;1.80;;
71204;SDS011;58935;54.498;18.544;2022-08-05T11:13:03;2.70;;;2.10;;
71204;SDS011;58935;54.498;18.544;2022-08-05T11:15:33;6.50;;;1.70;;
71204;SDS011;58935;54.498;18.544;2022-08-05T11:18:08;4.90;;;1.90;;
71204;SDS011;58935;54.498;18.544;2022-08-05T11:20:49;3.80;;;1.90;;
71204;SDS011;58935;54.498;18.544;2022-08-05T11:26:21;5.40;;;1.70;;
71204;SDS011;58935;54.498;18.544;2022-08-05T11:28:53;2.80;;;1.70;;
71204;SDS011;58935;54.498;18.544;2022-08-05T11:31:26;7.80;;;1.90;;
71204;SDS011;58935;54.498;18.544;2022-08-05T11:33:58;3.40;;;1.90;;
71204;SDS011;58935;54.498;18.544;2022-08-05T11:39:01;3.80;;;2.00;;
71204;SDS011;58935;54.498;18.544;2022-08-05T11:41:30;5.40;;;1.70;;
71204;SDS011;58935;54.498;18.544;2022-08-05T11:46:49;6.30;;;1.80;;
71204;SDS011;58935;54.498;18.544;2022-08-05T11:49:28;2.50;;;1.50;;
71204;SDS011;58935;54.498;18.544;2022-08-05T11:51:54;2.80;;;2.00;;
71204;SDS011;58935;54.498;18.544;2022-08-05T11:54:27;4.50;;;1.80;;
71204;SDS011;58935;54.498;18.544;2022-08-05T11:57:03;4.90;;;1.70;;
71204;SDS011;58935;54.498;18.544;2022-08-05T11:59:30;3.50;;;1.60;;
71204;SDS011;58935;54.498;18.544;2022-08-05T12:02:01;4.90;;;2.20;;
71204;SDS011;58935;54.498;18.544;2022-08-05T12:04:48;4.70;;;1.80;;
71204;SDS011;58935;54.498;18.544;2022-08-05T12:07:16;5.10;;;2.00;;
71204;SDS011;58935;54.498;18.544;2022-08-05T12:09:51;10.30;;;1.80;;
71204;SDS011;58935;54.498;18.544;2022-08-05T12:12:21;3.00;;;1.90;;
71204;SDS011;58935;54.498;18.544;2022-08-05T12:14:48;4.50;;;1.90;;
71204;SDS011;58935;54.498;18.544;2022-08-05T12:17:21;5.60;;;1.70;;
71204;SDS011;58935;54.498;18.544;2022-08-05T12:20:05;11.60;;;2.00;;
71204;SDS011;58935;54.498;18.544;2022-08-05T12:23:07;5.20;;;1.80;;
71204;SDS011;58935;54.498;18.544;2022-08-05T12:25:49;4.90;;;2.00;;
71204;SDS011;58935;54.498;18.544;2022-08-05T12:28:33;3.30;;;1.80;;
71204;SDS011;58935;54.498;18.544;2022-08-05T12:31:08;3.10;;;1.60;;
71204;SDS011;58935;54.498;18.544;2022-08-05T12:33:34;4.60;;;1.80;;
71204;SDS011;58935;54.498;18.544;2022-08-05T12:36:07;5.10;;;2.00;;
71204;SDS011;58935;54.498;18.544;2022-08-05T12:38:36;2.90;;;1.60;;
71204;SDS011;58935;54.498;18.544;2022-08-05T12:41:07;2.20;;;1.80;;
71204;SDS011;58935;54.498;18.544;2022-08-05T12:43:53;5.80;;;1.60;;
71204;SDS011;58935;54.498;18.544;2022-08-05T12:46:31;5.20;;;1.80;;
71204;SDS011;58935;54.498;18.544;2022-08-05T12:49:11;7.50;;;2.00;;
71204;SDS011;58935;54.498;18.544;2022-08-05T12:54:28;5.60;;;1.70;;
71204;SDS011;58935;54.498;18.544;2022-08-05T12:56:57;4.60;;;2.00;;
71204;SDS011;58935;54.498;18.544;2022-08-05T12:59:32;3.70;;;1.50;;
71204;SDS011;58935;54.498;18.544;2022-08-05T13:02:07;4.70;;;1.60;;
71204;SDS011;58935;54.498;18.544;2022-08-05T13:04:44;1.80;;;1.40;;
71204;SDS011;58935;54.498;18.544;2022-08-05T13:07:16;2.40;;;1.60;;
71204;SDS011;58935;54.498;18.544;2022-08-05T13:09:48;1.70;;;1.60;;
71204;SDS011;58935;54.498;18.544;2022-08-05T13:12:21;5.10;;;2.20;;
71204;SDS011;58935;54.498;18.544;2022-08-05T13:14:58;9.30;;;2.00;;
71204;SDS011;58935;54.498;18.544;2022-08-05T13:17:27;4.10;;;1.70;;
71204;SDS011;58935;54.498;18.544;2022-08-05T13:23:06;6.40;;;2.00;;
71204;SDS011;58935;54.498;18.544;2022-08-05T13:25:31;4.10;;;1.80;;
71204;SDS011;58935;54.498;18.544;2022-08-05T13:28:02;8.80;;;1.70;;
71204;SDS011;58935;54.498;18.544;2022-08-05T13:30:29;4.30;;;1.80;;
71204;SDS011;58935;54.498;18.544;2022-08-05T13:32:55;3.70;;;1.60;;
71204;SDS011;58935;54.498;18.544;2022-08-05T13:38:08;5.50;;;1.70;;
71204;SDS011;58935;54.498;18.544;2022-08-05T13:40:36;3.70;;;1.60;;
71204;SDS011;58935;54.498;18.544;2022-08-05T13:43:02;5.20;;;1.70;;
71204;SDS011;58935;54.498;18.544;2022-08-05T13:45:36;5.80;;;1.70;;
71204;SDS011;58935;54.498;18.544;2022-08-05T13:48:03;5.20;;;1.60;;
71204;SDS011;58935;54.498;18.544;2022-08-05T13:50:29;5.70;;;1.80;;
71204;SDS011;58935;54.498;18.544;2022-08-05T13:52:55;2.20;;;1.80;;
71204;SDS011;58935;54.498;18.544;2022-08-05T13:55:29;3.90;;;1.50;;
71204;SDS011;58935;54.498;18.544;2022-08-05T13:57:54;5.50;;;1.60;;
71204;SDS011;58935;54.498;18.544;2022-08-05T14:00:20;2.20;;;1.60;;
71204;SDS011;58935;54.498;18.544;2022-08-05T14:02:46;7.90;;;2.20;;
71204;SDS011;58935;54.498;18.544;2022-08-05T14:05:20;4.30;;;1.60;;
71204;SDS011;58935;54.498;18.544;2022-08-05T14:08:08;9.50;;;1.80;;
71204;SDS011;58935;54.498;18.544;2022-08-05T14:10:34;2.80;;;1.70;;
71204;SDS011;58935;54.498;18.544;2022-08-05T14:13:08;4.80;;;2.00;;
71204;SDS011;58935;54.498;18.544;2022-08-05T14:15:34;5.80;;;2.00;;
71204;SDS011;58935;54.498;18.544;2022-08-05T14:18:09;7.20;;;1.80;;
71204;SDS011;58935;54.498;18.544;2022-08-05T14:20:34;3.00;;;1.60;;
71204;SDS011;58935;54.498;18.544;2022-08-05T14:23:00;6.10;;;1.60;;
71204;SDS011;58935;54.498;18.544;2022-08-05T14:25:29;3.30;;;1.50;;
71204;SDS011;58935;54.498;18.544;2022-08-05T14:27:55;6.30;;;1.70;;
71204;SDS011;58935;54.498;18.544;2022-08-05T14:30:20;3.80;;;1.50;;
71204;SDS011;58935;54.498;18.544;2022-08-05T14:32:46;9.70;;;1.90;;
71204;SDS011;58935;54.498;18.544;2022-08-05T14:35:22;4.70;;;1.70;;
71204;SDS011;58935;54.498;18.544;2022-08-05T14:37:51;4.90;;;2.10;;
71204;SDS011;58935;54.498;18.544;2022-08-05T14:40:19;6.60;;;1.80;;
71204;SDS011;58935;54.498;18.544;2022-08-05T14:42:44;8.50;;;2.40;;
71204;SDS011;58935;54.498;18.544;2022-08-05T14:45:22;8.30;;;3.00;;
71204;SDS011;58935;54.498;18.544;2022-08-05T14:47:48;10.20;;;3.70;;
71204;SDS011;58935;54.498;18.544;2022-08-05T14:50:13;7.60;;;3.10;;
71204;SDS011;58935;54.498;18.544;2022-08-05T14:52:38;11.30;;;3.20;;
71204;SDS011;58935;54.498;18.544;2022-08-05T14:55:07;7.80;;;3.20;;
71204;SDS011;58935;54.498;18.544;2022-08-05T14:57:45;5.60;;;2.90;;
71204;SDS011;58935;54.498;18.544;2022-08-05T15:00:11;4.00;;;3.50;;
71204;SDS011;58935;54.498;18.544;2022-08-05T15:02:40;4.50;;;3.20;;
71204;SDS011;58935;54.498;18.544;2022-08-05T15:05:06;5.90;;;2.80;;
71204;SDS011;58935;54.498;18.544;2022-08-05T15:07:32;8.10;;;2.90;;
71204;SDS011;58935;54.498;18.544;2022-08-05T15:09:58;7.90;;;3.10;;
71204;SDS011;58935;54.498;18.544;2022-08-05T15:12:30;10.90;;;3.60;;
71204;SDS011;58935;54.498;18.544;2022-08-05T15:14:57;3.70;;;3.30;;
71204;SDS011;58935;54.498;18.544;2022-08-05T15:17:48;6.00;;;3.30;;
71204;SDS011;58935;54.498;18.544;2022-08-05T15:20:13;7.10;;;3.30;;
71204;SDS011;58935;54.498;18.544;2022-08-05T15:22:42;7.10;;;3.40;;
71204;SDS011;58935;54.498;18.544;2022-08-05T15:25:08;7.50;;;3.20;;
71204;SDS011;58935;54.498;18.544;2022-08-05T15:27:35;15.00;;;3.50;;
71204;SDS011;58935;54.498;18.544;2022-08-05T15:30:02;8.20;;;3.50;;
71204;SDS011;58935;54.498;18.544;2022-08-05T15:32:51;7.30;;;3.30;;
71204;SDS011;58935;54.498;18.544;2022-08-05T15:35:36;9.30;;;3.50;;
71204;SDS011;58935;54.498;18.544;2022-08-05T15:38:01;8.50;;;3.10;;
71204;SDS011;58935;54.498;18.544;2022-08-05T15:40:36;9.70;;;3.60;;
71204;SDS011;58935;54.498;18.544;2022-08-05T15:43:01;4.30;;;3.30;;